sensor_id;sensor_type;location;lat;lon;timestamp;pressure;altitude;pressure_sealevel;temperature;humidity
76132;BME280;64877;50.994;13.650;2023-07-16T00:02:21;98964.22;;;24.10;70.91
76132;BME280;64877;50.994;13.650;2023-07-16T00:04:46;98973.50;;;24.16;69.95
76132;BME280;64877;50.994;13.650;2023-07-16T00:07:11;98982.47;;;24.11;69.80
76132;BME280;64877;50.994;13.650;2023-07-16T00:09:37;98997.16;;;24.05;70.39
76132;BME280;64877;50.994;13.650;2023-07-16T00:12:03;99000.88;;;23.92;71.34
76132;BME280;64877;50.994;13.650;2023-07-16T00:14:28;99014.00;;;23.97;71.17
76132;BME280;64877;50.994;13.650;2023-07-16T00:16:54;99075.25;;;24.12;70.29
76132;BME280;64877;50.994;13.650;2023-07-16T00:19:19;99167.72;;;24.21;69.49
76132;BME280;64877;50.994;13.650;2023-07-16T00:21:44;99158.16;;;24.24;67.73
76132;BME280;64877;50.994;13.650;2023-07-16T00:24:10;99126.75;;;24.25;67.97
76132;BME280;64877;50.994;13.650;2023-07-16T00:26:35;99149.28;;;24.22;68.15
76132;BME280;64877;50.994;13.650;2023-07-16T00:29:00;99197.03;;;24.22;68.47
76132;BME280;64877;50.994;13.650;2023-07-16T00:31:26;99210.56;;;24.31;68.15
76132;BME280;64877;50.994;13.650;2023-07-16T00:33:51;99219.28;;;24.34;67.66
76132;BME280;64877;50.994;13.650;2023-07-16T00:36:16;99217.59;;;24.33;68.06
76132;BME280;64877;50.994;13.650;2023-07-16T00:38:42;99217.59;;;24.33;68.69
76132;BME280;64877;50.994;13.650;2023-07-16T00:41:08;99235.84;;;24.34;68.53
76132;BME280;64877;50.994;13.650;2023-07-16T00:43:33;99227.34;;;24.42;69.20
76132;BME280;64877;50.994;13.650;2023-07-16T00:45:58;99222.69;;;24.36;70.63
76132;BME280;64877;50.994;13.650;2023-07-16T00:48:24;99232.00;;;24.35;71.76
76132;BME280;64877;50.994;13.650;2023-07-16T00:50:52;99245.19;;;24.33;71.81
76132;BME280;64877;50.994;13.650;2023-07-16T00:53:19;99237.56;;;24.29;72.82
76132;BME280;64877;50.994;13.650;2023-07-16T00:55:45;99236.53;;;24.23;73.40
76132;BME280;64877;50.994;13.650;2023-07-16T00:58:10;99238.22;;;24.24;73.26
76132;BME280;64877;50.994;13.650;2023-07-16T01:00:37;99242.66;;;24.25;73.96
76132;BME280;64877;50.994;13.650;2023-07-16T01:03:06;99249.03;;;24.25;74.36
76132;BME280;64877;50.994;13.650;2023-07-16T01:08:59;99226.94;;;24.25;74.04
76132;BME280;64877;50.994;13.650;2023-07-16T01:11:26;99216.09;;;24.31;73.79
76132;BME280;64877;50.994;13.650;2023-07-16T01:13:53;99198.50;;;24.32;74.00
76132;BME280;64877;50.994;13.650;2023-07-16T01:16:20;99181.06;;;24.31;73.91
76132;BME280;64877;50.994;13.650;2023-07-16T01:18:46;99181.06;;;24.31;73.63
76132;BME280;64877;50.994;13.650;2023-07-16T01:21:12;99180.66;;;24.28;73.69
76132;BME280;64877;50.994;13.650;2023-07-16T01:29:12;99167.06;;;24.26;76.24
76132;BME280;64877;50.994;13.650;2023-07-16T01:31:46;99143.78;;;24.15;79.93
76132;BME280;64877;50.994;13.650;2023-07-16T01:34:12;99133.56;;;24.16;78.15
76132;BME280;64877;50.994;13.650;2023-07-16T01:36:39;99134.03;;;24.06;78.51
76132;BME280;64877;50.994;13.650;2023-07-16T01:39:05;99154.44;;;24.05;79.73
76132;BME280;64877;50.994;13.650;2023-07-16T01:41:31;99148.50;;;24.02;80.48
76132;BME280;64877;50.994;13.650;2023-07-16T01:43:56;99168.06;;;23.93;81.85
76132;BME280;64877;50.994;13.650;2023-07-16T01:46:21;99168.53;;;23.84;83.59
76132;BME280;64877;50.994;13.650;2023-07-16T01:48:47;99179.59;;;23.77;84.40
76132;BME280;64877;50.994;13.650;2023-07-16T01:51:12;99174.09;;;23.64;85.99
76132;BME280;64877;50.994;13.650;2023-07-16T01:53:42;99187.03;;;23.63;86.71
76132;BME280;64877;50.994;13.650;2023-07-16T01:56:07;99177.69;;;23.64;86.17
76132;BME280;64877;50.994;13.650;2023-07-16T01:58:33;99170.66;;;23.62;86.36
76132;BME280;64877;50.994;13.650;2023-07-16T02:00:59;99164.75;;;23.58;85.99
76132;BME280;64877;50.994;13.650;2023-07-16T02:03:24;99178.75;;;23.43;87.68
76132;BME280;64877;50.994;13.650;2023-07-16T02:05:49;99177.28;;;23.47;87.81
76132;BME280;64877;50.994;13.650;2023-07-16T02:08:16;99162.22;;;23.37;89.58
76132;BME280;64877;50.994;13.650;2023-07-16T02:10:42;99191.47;;;23.31;89.69
76132;BME280;64877;50.994;13.650;2023-07-16T02:13:07;99233.88;;;23.37;92.00
76132;BME280;64877;50.994;13.650;2023-07-16T02:15:32;99238.97;;;23.20;92.26
76132;BME280;64877;50.994;13.650;2023-07-16T02:17:58;99220.31;;;23.09;93.50
76132;BME280;64877;50.994;13.650;2023-07-16T02:20:23;99223.28;;;22.94;94.76
76132;BME280;64877;50.994;13.650;2023-07-16T02:22:48;99238.97;;;22.93;96.33
76132;BME280;64877;50.994;13.650;2023-07-16T02:25:14;99219.66;;;23.00;95.90
76132;BME280;64877;50.994;13.650;2023-07-16T02:27:39;99213.94;;;23.02;95.41
76132;BME280;64877;50.994;13.650;2023-07-16T02:30:05;99226.19;;;22.86;98.17
76132;BME280;64877;50.994;13.650;2023-07-16T02:32:32;99230.81;;;22.65;100.00
76132;BME280;64877;50.994;13.650;2023-07-16T02:34:57;99232.47;;;22.60;100.00
76132;BME280;64877;50.994;13.650;2023-07-16T02:37:23;99226.69;;;22.41;100.00
76132;BME280;64877;50.994;13.650;2023-07-16T02:39:48;99241.72;;;22.39;100.00
76132;BME280;64877;50.994;13.650;2023-07-16T02:42:13;99273.25;;;22.36;100.00
76132;BME280;64877;50.994;13.650;2023-07-16T02:44:39;99298.22;;;22.35;100.00
76132;BME280;64877;50.994;13.650;2023-07-16T02:47:09;99286.53;;;22.26;100.00
76132;BME280;64877;50.994;13.650;2023-07-16T02:49:35;99306.88;;;22.32;100.00
76132;BME280;64877;50.994;13.650;2023-07-16T02:52:00;99321.25;;;22.27;100.00
76132;BME280;64877;50.994;13.650;2023-07-16T02:54:25;99315.34;;;22.30;100.00
76132;BME280;64877;50.994;13.650;2023-07-16T02:56:51;99325.91;;;22.27;100.00
76132;BME280;64877;50.994;13.650;2023-07-16T02:59:16;99338.66;;;22.34;100.00
76132;BME280;64877;50.994;13.650;2023-07-16T03:01:42;99344.19;;;22.41;100.00
76132;BME280;64877;50.994;13.650;2023-07-16T03:04:07;99342.78;;;22.17;100.00
76132;BME280;64877;50.994;13.650;2023-07-16T03:06:32;99353.84;;;22.24;100.00
76132;BME280;64877;50.994;13.650;2023-07-16T03:08:58;99348.16;;;22.04;100.00
76132;BME280;64877;50.994;13.650;2023-07-16T03:11:23;99341.84;;;22.10;100.00
76132;BME280;64877;50.994;13.650;2023-07-16T03:13:48;99332.09;;;22.07;100.00
76132;BME280;64877;50.994;13.650;2023-07-16T03:16:14;99326.81;;;22.06;100.00
76132;BME280;64877;50.994;13.650;2023-07-16T03:18:39;99340.06;;;21.96;100.00
76132;BME280;64877;50.994;13.650;2023-07-16T03:21:05;99350.50;;;22.07;100.00
76132;BME280;64877;50.994;13.650;2023-07-16T03:23:30;99357.19;;;21.98;100.00
76132;BME280;64877;50.994;13.650;2023-07-16T03:25:55;99370.31;;;21.96;100.00
76132;BME280;64877;50.994;13.650;2023-07-16T03:28:21;99377.94;;;21.93;100.00
76132;BME280;64877;50.994;13.650;2023-07-16T03:30:47;99387.19;;;21.92;100.00
76132;BME280;64877;50.994;13.650;2023-07-16T03:33:13;99373.91;;;21.96;100.00
76132;BME280;64877;50.994;13.650;2023-07-16T03:35:38;99364.59;;;21.97;100.00
76132;BME280;64877;50.994;13.650;2023-07-16T03:38:04;99359.41;;;21.81;100.00
76132;BME280;64877;50.994;13.650;2023-07-16T03:40:30;99348.91;;;21.91;100.00
76132;BME280;64877;50.994;13.650;2023-07-16T03:42:55;99333.84;;;21.87;100.00
76132;BME280;64877;50.994;13.650;2023-07-16T03:45:21;99319.00;;;21.81;100.00
76132;BME280;64877;50.994;13.650;2023-07-16T03:47:46;99336.34;;;21.82;100.00
76132;BME280;64877;50.994;13.650;2023-07-16T03:50:12;99332.75;;;21.81;100.00
76132;BME280;64877;50.994;13.650;2023-07-16T03:52:37;99322.19;;;21.78;100.00
76132;BME280;64877;50.994;13.650;2023-07-16T03:55:03;99325.09;;;21.77;100.00
76132;BME280;64877;50.994;13.650;2023-07-16T03:57:29;99312.38;;;21.69;100.00
76132;BME280;64877;50.994;13.650;2023-07-16T03:59:54;99300.06;;;21.65;100.00
76132;BME280;64877;50.994;13.650;2023-07-16T04:02:20;99288.16;;;21.58;100.00
76132;BME280;64877;50.994;13.650;2023-07-16T04:04:45;99280.13;;;21.56;100.00
76132;BME280;64877;50.994;13.650;2023-07-16T04:07:11;99279.72;;;21.59;100.00
76132;BME280;64877;50.994;13.650;2023-07-16T04:09:38;99278.72;;;21.67;100.00
76132;BME280;64877;50.994;13.650;2023-07-16T04:12:04;99284.81;;;21.62;100.00
76132;BME280;64877;50.994;13.650;2023-07-16T04:14:30;99270.91;;;21.64;100.00
76132;BME280;64877;50.994;13.650;2023-07-16T04:16:55;99266.84;;;21.60;100.00
76132;BME280;64877;50.994;13.650;2023-07-16T04:19:20;99275.09;;;21.60;100.00
76132;BME280;64877;50.994;13.650;2023-07-16T04:21:46;99264.97;;;21.67;100.00
76132;BME280;64877;50.994;13.650;2023-07-16T04:24:11;99263.66;;;21.63;100.00
76132;BME280;64877;50.994;13.650;2023-07-16T04:26:37;99268.81;;;21.73;100.00
76132;BME280;64877;50.994;13.650;2023-07-16T04:29:02;99277.66;;;21.68;100.00
76132;BME280;64877;50.994;13.650;2023-07-16T04:31:27;99276.56;;;21.62;100.00
76132;BME280;64877;50.994;13.650;2023-07-16T04:33:53;99277.41;;;21.63;100.00
76132;BME280;64877;50.994;13.650;2023-07-16T04:36:18;99287.63;;;21.69;100.00
76132;BME280;64877;50.994;13.650;2023-07-16T04:38:43;99286.56;;;21.70;100.00
76132;BME280;64877;50.994;13.650;2023-07-16T04:41:09;99280.84;;;21.65;100.00
76132;BME280;64877;50.994;13.650;2023-07-16T04:43:34;99285.78;;;21.76;100.00
76132;BME280;64877;50.994;13.650;2023-07-16T04:46:00;99291.38;;;21.89;100.00
76132;BME280;64877;50.994;13.650;2023-07-16T04:48:26;99293.94;;;21.98;100.00
76132;BME280;64877;50.994;13.650;2023-07-16T04:50:51;99311.13;;;22.00;100.00
76132;BME280;64877;50.994;13.650;2023-07-16T04:53:22;99317.09;;;22.10;100.00
76132;BME280;64877;50.994;13.650;2023-07-16T04:55:47;99308.00;;;22.09;100.00
76132;BME280;64877;50.994;13.650;2023-07-16T04:58:12;99302.69;;;22.08;100.00
76132;BME280;64877;50.994;13.650;2023-07-16T05:00:38;99284.09;;;22.10;100.00
76132;BME280;64877;50.994;13.650;2023-07-16T05:03:03;99286.16;;;22.01;100.00
76132;BME280;64877;50.994;13.650;2023-07-16T05:05:29;99255.44;;;21.98;100.00
76132;BME280;64877;50.994;13.650;2023-07-16T05:07:54;99237.50;;;22.02;100.00
76132;BME280;64877;50.994;13.650;2023-07-16T05:10:19;99215.47;;;21.95;100.00
76132;BME280;64877;50.994;13.650;2023-07-16T05:12:45;99213.94;;;21.92;100.00
76132;BME280;64877;50.994;13.650;2023-07-16T05:15:10;99210.22;;;22.07;100.00
76132;BME280;64877;50.994;13.650;2023-07-16T05:17:36;99214.03;;;22.06;100.00
76132;BME280;64877;50.994;13.650;2023-07-16T05:20:01;99217.38;;;21.94;100.00
76132;BME280;64877;50.994;13.650;2023-07-16T05:22:28;99227.16;;;22.04;100.00
76132;BME280;64877;50.994;13.650;2023-07-16T05:24:53;99243.41;;;21.99;100.00
76132;BME280;64877;50.994;13.650;2023-07-16T05:27:18;99264.81;;;22.03;100.00
76132;BME280;64877;50.994;13.650;2023-07-16T05:29:44;99268.72;;;22.15;100.00
76132;BME280;64877;50.994;13.650;2023-07-16T05:32:09;99277.56;;;22.11;100.00
76132;BME280;64877;50.994;13.650;2023-07-16T05:34:34;99280.56;;;22.16;100.00
76132;BME280;64877;50.994;13.650;2023-07-16T05:37:00;99280.78;;;22.14;100.00
76132;BME280;64877;50.994;13.650;2023-07-16T05:39:25;99274.66;;;22.19;100.00
76132;BME280;64877;50.994;13.650;2023-07-16T05:41:50;99281.03;;;22.26;100.00
76132;BME280;64877;50.994;13.650;2023-07-16T05:44:16;99290.59;;;22.30;100.00
76132;BME280;64877;50.994;13.650;2023-07-16T05:46:41;99294.66;;;22.41;100.00
76132;BME280;64877;50.994;13.650;2023-07-16T05:49:07;99296.41;;;22.55;100.00
76132;BME280;64877;50.994;13.650;2023-07-16T05:51:32;99302.44;;;22.79;100.00
76132;BME280;64877;50.994;13.650;2023-07-16T05:53:58;99321.38;;;23.02;100.00
76132;BME280;64877;50.994;13.650;2023-07-16T05:56:23;99322.94;;;23.31;100.00
76132;BME280;64877;50.994;13.650;2023-07-16T05:58:48;99324.66;;;23.58;100.00
76132;BME280;64877;50.994;13.650;2023-07-16T06:01:14;99332.25;;;24.29;95.56
76132;BME280;64877;50.994;13.650;2023-07-16T06:03:39;99331.78;;;24.59;92.94
76132;BME280;64877;50.994;13.650;2023-07-16T06:06:04;99349.81;;;25.19;90.82
76132;BME280;64877;50.994;13.650;2023-07-16T06:08:30;99368.44;;;26.19;80.26
76132;BME280;64877;50.994;13.650;2023-07-16T06:10:55;99368.28;;;26.57;78.17
76132;BME280;64877;50.994;13.650;2023-07-16T06:13:21;99370.69;;;26.72;72.44
76132;BME280;64877;50.994;13.650;2023-07-16T06:15:46;99375.97;;;26.55;72.93
76132;BME280;64877;50.994;13.650;2023-07-16T06:18:12;99382.06;;;25.95;77.32
76132;BME280;64877;50.994;13.650;2023-07-16T06:20:37;99392.09;;;25.58;80.28
76132;BME280;64877;50.994;13.650;2023-07-16T06:23:03;99396.03;;;24.92;84.08
76132;BME280;64877;50.994;13.650;2023-07-16T06:25:29;99394.59;;;25.98;77.77
76132;BME280;64877;50.994;13.650;2023-07-16T06:27:54;99397.47;;;26.78;73.32
76132;BME280;64877;50.994;13.650;2023-07-16T06:30:20;99397.13;;;27.71;68.71
76132;BME280;64877;50.994;13.650;2023-07-16T06:32:45;99399.06;;;27.52;69.24
76132;BME280;64877;50.994;13.650;2023-07-16T06:35:11;99406.13;;;27.67;64.96
76132;BME280;64877;50.994;13.650;2023-07-16T06:37:36;99406.50;;;28.00;62.92
76132;BME280;64877;50.994;13.650;2023-07-16T06:40:02;99404.63;;;28.59;60.97
76132;BME280;64877;50.994;13.650;2023-07-16T06:42:28;99394.66;;;28.17;61.40
76132;BME280;64877;50.994;13.650;2023-07-16T06:44:54;99407.28;;;27.89;62.32
76132;BME280;64877;50.994;13.650;2023-07-16T06:47:19;99402.13;;;27.63;63.95
76132;BME280;64877;50.994;13.650;2023-07-16T06:49:44;99411.97;;;27.77;63.53
76132;BME280;64877;50.994;13.650;2023-07-16T06:52:19;99407.81;;;28.09;60.26
76132;BME280;64877;50.994;13.650;2023-07-16T06:54:45;99405.47;;;27.83;60.62
76132;BME280;64877;50.994;13.650;2023-07-16T06:57:10;99408.69;;;28.10;61.67
76132;BME280;64877;50.994;13.650;2023-07-16T06:59:35;99403.75;;;28.59;58.66
76132;BME280;64877;50.994;13.650;2023-07-16T07:02:01;99406.53;;;28.71;55.59
76132;BME280;64877;50.994;13.650;2023-07-16T07:04:26;99410.75;;;28.97;53.72
76132;BME280;64877;50.994;13.650;2023-07-16T07:06:52;99422.44;;;29.10;53.71
76132;BME280;64877;50.994;13.650;2023-07-16T07:09:17;99427.78;;;29.00;54.11
76132;BME280;64877;50.994;13.650;2023-07-16T07:11:42;99419.63;;;29.63;51.50
76132;BME280;64877;50.994;13.650;2023-07-16T07:14:08;99401.53;;;29.94;50.35
76132;BME280;64877;50.994;13.650;2023-07-16T07:16:33;99415.31;;;30.17;50.07
76132;BME280;64877;50.994;13.650;2023-07-16T07:18:59;99416.75;;;30.70;47.22
76132;BME280;64877;50.994;13.650;2023-07-16T07:21:25;99426.81;;;30.54;46.82
76132;BME280;64877;50.994;13.650;2023-07-16T07:23:50;99428.97;;;30.69;46.67
76132;BME280;64877;50.994;13.650;2023-07-16T07:26:15;99436.69;;;31.01;45.33
76132;BME280;64877;50.994;13.650;2023-07-16T07:28:41;99435.28;;;30.98;45.03
76132;BME280;64877;50.994;13.650;2023-07-16T07:31:06;99439.03;;;31.53;43.64
76132;BME280;64877;50.994;13.650;2023-07-16T07:33:31;99444.56;;;31.70;43.11
76132;BME280;64877;50.994;13.650;2023-07-16T07:35:57;99447.50;;;32.12;40.85
76132;BME280;64877;50.994;13.650;2023-07-16T07:38:23;99454.94;;;33.55;37.49
76132;BME280;64877;50.994;13.650;2023-07-16T07:40:48;99466.75;;;32.67;38.05
76132;BME280;64877;50.994;13.650;2023-07-16T07:43:13;99463.88;;;30.88;40.74
76132;BME280;64877;50.994;13.650;2023-07-16T07:45:39;99468.41;;;30.10;42.10
76132;BME280;64877;50.994;13.650;2023-07-16T07:48:05;99471.41;;;28.88;46.18
76132;BME280;64877;50.994;13.650;2023-07-16T07:50:30;99476.25;;;28.69;46.71
76132;BME280;64877;50.994;13.650;2023-07-16T07:52:56;99481.16;;;28.32;48.32
76132;BME280;64877;50.994;13.650;2023-07-16T07:55:21;99475.03;;;28.53;47.28
76132;BME280;64877;50.994;13.650;2023-07-16T07:57:47;99474.19;;;28.41;47.76
76132;BME280;64877;50.994;13.650;2023-07-16T08:00:12;99463.00;;;28.18;48.43
76132;BME280;64877;50.994;13.650;2023-07-16T08:02:38;99459.72;;;27.97;49.63
76132;BME280;64877;50.994;13.650;2023-07-16T08:05:04;99465.13;;;27.92;49.54
76132;BME280;64877;50.994;13.650;2023-07-16T08:07:29;99460.53;;;27.86;50.42
76132;BME280;64877;50.994;13.650;2023-07-16T08:09:55;99463.53;;;27.85;49.76
76132;BME280;64877;50.994;13.650;2023-07-16T08:12:20;99445.75;;;27.74;49.63
76132;BME280;64877;50.994;13.650;2023-07-16T08:14:47;99447.13;;;27.65;49.83
76132;BME280;64877;50.994;13.650;2023-07-16T08:17:13;99446.53;;;27.63;50.18
76132;BME280;64877;50.994;13.650;2023-07-16T08:19:38;99457.63;;;27.81;49.09
76132;BME280;64877;50.994;13.650;2023-07-16T08:22:04;99459.19;;;27.58;50.07
76132;BME280;64877;50.994;13.650;2023-07-16T08:24:29;99467.25;;;28.20;47.61
76132;BME280;64877;50.994;13.650;2023-07-16T08:26:55;99466.19;;;28.33;47.61
76132;BME280;64877;50.994;13.650;2023-07-16T08:29:20;99475.03;;;28.42;46.28
76132;BME280;64877;50.994;13.650;2023-07-16T08:31:45;99476.22;;;27.92;47.66
76132;BME280;64877;50.994;13.650;2023-07-16T08:34:11;99482.88;;;27.91;46.36
76132;BME280;64877;50.994;13.650;2023-07-16T08:36:36;99477.50;;;27.78;46.68
76132;BME280;64877;50.994;13.650;2023-07-16T08:39:03;99471.22;;;27.71;47.42
76132;BME280;64877;50.994;13.650;2023-07-16T08:41:28;99478.47;;;27.53;47.80
76132;BME280;64877;50.994;13.650;2023-07-16T08:43:54;99483.31;;;27.40;48.71
76132;BME280;64877;50.994;13.650;2023-07-16T08:46:20;99481.47;;;27.52;48.05
76132;BME280;64877;50.994;13.650;2023-07-16T08:48:45;99482.47;;;27.39;48.59
76132;BME280;64877;50.994;13.650;2023-07-16T08:51:14;99479.84;;;27.44;49.31
76132;BME280;64877;50.994;13.650;2023-07-16T08:53:40;99487.69;;;27.66;47.68
76132;BME280;64877;50.994;13.650;2023-07-16T08:56:05;99484.81;;;28.44;46.28
76132;BME280;64877;50.994;13.650;2023-07-16T08:58:31;99492.22;;;29.09;44.54
76132;BME280;64877;50.994;13.650;2023-07-16T09:00:57;99494.59;;;29.29;43.39
76132;BME280;64877;50.994;13.650;2023-07-16T09:03:23;99495.25;;;29.71;42.18
76132;BME280;64877;50.994;13.650;2023-07-16T09:05:48;99496.88;;;29.55;41.62
76132;BME280;64877;50.994;13.650;2023-07-16T09:08:14;99498.31;;;29.46;42.39
76132;BME280;64877;50.994;13.650;2023-07-16T09:10:41;99507.44;;;28.83;43.67
76132;BME280;64877;50.994;13.650;2023-07-16T09:13:06;99507.03;;;29.38;43.55
76132;BME280;64877;50.994;13.650;2023-07-16T09:15:32;99508.88;;;29.32;43.02
76132;BME280;64877;50.994;13.650;2023-07-16T09:17:59;99519.06;;;29.27;43.33
76132;BME280;64877;50.994;13.650;2023-07-16T09:20:25;99510.78;;;29.44;42.42
76132;BME280;64877;50.994;13.650;2023-07-16T09:22:54;99514.00;;;29.12;42.28
76132;BME280;64877;50.994;13.650;2023-07-16T09:25:29;99507.56;;;28.88;42.13
76132;BME280;64877;50.994;13.650;2023-07-16T09:27:55;99513.25;;;28.70;41.88
76132;BME280;64877;50.994;13.650;2023-07-16T09:30:23;99517.47;;;28.84;42.27
76132;BME280;64877;50.994;13.650;2023-07-16T09:32:48;99525.69;;;28.55;42.80
76132;BME280;64877;50.994;13.650;2023-07-16T09:35:15;99523.53;;;28.81;42.42
76132;BME280;64877;50.994;13.650;2023-07-16T09:37:41;99518.97;;;28.98;40.81
76132;BME280;64877;50.994;13.650;2023-07-16T09:40:08;99507.22;;;28.73;40.93
76132;BME280;64877;50.994;13.650;2023-07-16T09:42:42;99506.78;;;28.34;40.22
76132;BME280;64877;50.994;13.650;2023-07-16T09:45:12;99516.34;;;28.38;41.51
76132;BME280;64877;50.994;13.650;2023-07-16T09:47:38;99525.72;;;28.25;40.57
76132;BME280;64877;50.994;13.650;2023-07-16T09:50:03;99510.03;;;28.31;39.62
76132;BME280;64877;50.994;13.650;2023-07-16T09:52:32;99514.34;;;28.15;40.67
76132;BME280;64877;50.994;13.650;2023-07-16T09:55:01;99512.34;;;28.34;40.41
76132;BME280;64877;50.994;13.650;2023-07-16T09:57:28;99513.91;;;28.30;40.03
76132;BME280;64877;50.994;13.650;2023-07-16T09:59:56;99513.31;;;27.98;40.52
76132;BME280;64877;50.994;13.650;2023-07-16T10:02:23;99510.91;;;28.43;40.32
76132;BME280;64877;50.994;13.650;2023-07-16T10:04:49;99521.94;;;28.50;39.72
76132;BME280;64877;50.994;13.650;2023-07-16T10:07:25;99516.47;;;28.43;40.51
76132;BME280;64877;50.994;13.650;2023-07-16T10:09:56;99520.34;;;28.42;40.03
76132;BME280;64877;50.994;13.650;2023-07-16T10:12:25;99513.94;;;28.53;39.94
76132;BME280;64877;50.994;13.650;2023-07-16T10:14:55;99512.91;;;28.54;39.78
76132;BME280;64877;50.994;13.650;2023-07-16T10:17:26;99511.25;;;27.93;40.04
76132;BME280;64877;50.994;13.650;2023-07-16T10:22:18;99521.69;;;28.51;39.58
76132;BME280;64877;50.994;13.650;2023-07-16T10:24:50;99528.00;;;28.17;39.47
76132;BME280;64877;50.994;13.650;2023-07-16T10:27:33;99533.19;;;28.55;39.15
76132;BME280;64877;50.994;13.650;2023-07-16T10:30:03;99535.63;;;28.33;39.82
76132;BME280;64877;50.994;13.650;2023-07-16T10:32:31;99535.22;;;28.18;39.63
76132;BME280;64877;50.994;13.650;2023-07-16T10:34:57;99538.59;;;28.08;38.94
76132;BME280;64877;50.994;13.650;2023-07-16T10:37:24;99550.19;;;28.05;39.00
76132;BME280;64877;50.994;13.650;2023-07-16T10:39:52;99542.13;;;27.85;40.50
76132;BME280;64877;50.994;13.650;2023-07-16T10:42:19;99551.84;;;27.76;39.99
76132;BME280;64877;50.994;13.650;2023-07-16T10:44:45;99546.69;;;27.61;40.24
76132;BME280;64877;50.994;13.650;2023-07-16T10:49:46;99545.00;;;27.42;41.71
76132;BME280;64877;50.994;13.650;2023-07-16T10:52:11;99530.63;;;27.45;41.29
76132;BME280;64877;50.994;13.650;2023-07-16T10:54:37;99533.56;;;27.50;41.02
76132;BME280;64877;50.994;13.650;2023-07-16T10:57:04;99537.97;;;27.76;40.89
76132;BME280;64877;50.994;13.650;2023-07-16T10:59:29;99534.81;;;27.72;41.32
76132;BME280;64877;50.994;13.650;2023-07-16T11:01:55;99542.00;;;27.80;41.44
76132;BME280;64877;50.994;13.650;2023-07-16T11:04:20;99534.97;;;28.07;41.06
76132;BME280;64877;50.994;13.650;2023-07-16T11:06:46;99528.97;;;28.22;40.65
76132;BME280;64877;50.994;13.650;2023-07-16T11:09:13;99532.56;;;28.41;40.46
76132;BME280;64877;50.994;13.650;2023-07-16T11:11:39;99535.13;;;28.24;40.08
76132;BME280;64877;50.994;13.650;2023-07-16T11:14:06;99545.97;;;27.84;41.25
76132;BME280;64877;50.994;13.650;2023-07-16T11:16:35;99540.06;;;28.11;40.64
76132;BME280;64877;50.994;13.650;2023-07-16T11:19:04;99547.03;;;28.01;40.14
76132;BME280;64877;50.994;13.650;2023-07-16T11:21:31;99527.53;;;28.20;40.81
76132;BME280;64877;50.994;13.650;2023-07-16T11:24:07;99532.88;;;28.03;40.84
76132;BME280;64877;50.994;13.650;2023-07-16T11:26:33;99526.19;;;28.22;41.41
76132;BME280;64877;50.994;13.650;2023-07-16T11:28:59;99531.72;;;28.11;41.63
76132;BME280;64877;50.994;13.650;2023-07-16T11:31:24;99539.47;;;28.20;41.04
76132;BME280;64877;50.994;13.650;2023-07-16T11:33:49;99540.59;;;28.31;39.98
76132;BME280;64877;50.994;13.650;2023-07-16T11:36:16;99523.84;;;28.49;39.47
76132;BME280;64877;50.994;13.650;2023-07-16T11:38:42;99523.63;;;28.51;39.09
76132;BME280;64877;50.994;13.650;2023-07-16T11:41:07;99518.53;;;28.48;39.24
76132;BME280;64877;50.994;13.650;2023-07-16T11:43:36;99516.38;;;28.50;38.77
76132;BME280;64877;50.994;13.650;2023-07-16T11:46:03;99519.88;;;28.45;39.99
76132;BME280;64877;50.994;13.650;2023-07-16T11:48:28;99514.56;;;28.14;40.20
76132;BME280;64877;50.994;13.650;2023-07-16T11:50:54;99513.34;;;28.09;40.14
76132;BME280;64877;50.994;13.650;2023-07-16T11:53:19;99509.94;;;28.38;40.35
76132;BME280;64877;50.994;13.650;2023-07-16T11:55:45;99499.94;;;28.48;40.82
76132;BME280;64877;50.994;13.650;2023-07-16T11:58:10;99495.81;;;28.39;39.93
76132;BME280;64877;50.994;13.650;2023-07-16T12:00:36;99512.81;;;28.31;40.31
76132;BME280;64877;50.994;13.650;2023-07-16T12:03:01;99504.69;;;28.29;39.95
76132;BME280;64877;50.994;13.650;2023-07-16T12:05:26;99493.38;;;28.31;41.35
76132;BME280;64877;50.994;13.650;2023-07-16T12:07:53;99488.69;;;28.43;40.76
76132;BME280;64877;50.994;13.650;2023-07-16T12:10:19;99489.06;;;28.47;40.28
76132;BME280;64877;50.994;13.650;2023-07-16T12:12:45;99494.50;;;28.42;40.88
76132;BME280;64877;50.994;13.650;2023-07-16T12:15:11;99497.88;;;28.44;40.63
76132;BME280;64877;50.994;13.650;2023-07-16T12:17:37;99491.97;;;28.40;41.33
76132;BME280;64877;50.994;13.650;2023-07-16T12:20:03;99489.78;;;28.54;40.69
76132;BME280;64877;50.994;13.650;2023-07-16T12:22:29;99498.72;;;28.44;39.95
76132;BME280;64877;50.994;13.650;2023-07-16T12:24:55;99503.34;;;28.50;40.58
76132;BME280;64877;50.994;13.650;2023-07-16T12:27:20;99493.66;;;28.53;40.41
76132;BME280;64877;50.994;13.650;2023-07-16T12:29:46;99497.66;;;28.45;39.76
76132;BME280;64877;50.994;13.650;2023-07-16T12:32:12;99487.63;;;28.56;39.78
76132;BME280;64877;50.994;13.650;2023-07-16T12:34:37;99494.63;;;28.58;39.54
76132;BME280;64877;50.994;13.650;2023-07-16T12:37:03;99493.28;;;28.49;39.55
76132;BME280;64877;50.994;13.650;2023-07-16T12:39:29;99481.91;;;28.39;39.73
76132;BME280;64877;50.994;13.650;2023-07-16T12:41:54;99479.00;;;28.34;40.80
76132;BME280;64877;50.994;13.650;2023-07-16T12:44:19;99487.13;;;28.36;40.69
76132;BME280;64877;50.994;13.650;2023-07-16T12:46:45;99490.91;;;28.23;40.96
76132;BME280;64877;50.994;13.650;2023-07-16T12:49:10;99484.66;;;28.27;41.28
76132;BME280;64877;50.994;13.650;2023-07-16T12:51:36;99485.91;;;28.43;40.86
76132;BME280;64877;50.994;13.650;2023-07-16T12:54:01;99476.13;;;28.41;40.32
76132;BME280;64877;50.994;13.650;2023-07-16T12:56:27;99476.72;;;28.43;40.49